Terminal Aerodrome Forecast
Issued by NWS

Home | Current Version | Previous Version | Text Only | Print | Product List | Glossary Off
Versions: 1 2 3 4 5 6 7 8 9 10 11 12 13 14 15 16 17 18 19 20 21 22 23

000
FTUS43 KGRB 201749
TAFCWA
TAF
KCWA 201749Z 2018/2118 21009G15KT P6SM SCT035
     FM202200 24006KT P6SM SCT040 BKN100
      TEMPO 2023/2103 3SM -TSRA BKN025 BKN035CB
     FM210300 26003KT P6SM SCT035 BKN070
     FM211000 VRB03KT 4SM BR SCT050 BKN150
     FM211300 14003KT P6SM SCT040 BKN090=

USA.gov is the U.S. government's official web portal to all federal, state and local government web resources and services.